Time;durP1;ratioP1;P1;durP2;ratioP2;P2;SDS_P1;SDS_P2;PMS_P1;PMS_P2;Temp;Humidity;BMP_temperature;BMP_pressure;BME280_temperature;BME280_humidity;BME280_pressure;Samples;Min_cycle;Max_cycle;Signal;HPM_P1;HPM_P2
2022/02/26 00:02:22;;;;;;;7.20;2.03;;;2.50;97.50;;;;;;5015834;28;20022;-79
2022/02/26 00:04:48;;;;;;;8.18;1.75;;;2.50;97.20;;;;;;5016399;28;20470;-79
2022/02/26 00:07:13;;;;;;;6.63;2.00;;;2.50;96.70;;;;;;5020611;28;20033;-79
2022/02/26 00:09:39;;;;;;;8.13;1.80;;;2.50;96.50;;;;;;5031627;28;20443;-78
2022/02/26 00:12:05;;;;;;;10.40;1.73;;;2.50;96.70;;;;;;5017645;28;20022;-78
2022/02/26 00:14:31;;;;;;;4.55;1.60;;;2.50;96.90;;;;;;5016112;28;20030;-80
2022/02/26 00:16:57;;;;;;;6.88;1.67;;;2.50;96.50;;;;;;5017712;28;20037;-79
2022/02/26 00:19:22;;;;;;;5.00;1.15;;;2.50;96.60;;;;;;5016037;28;20032;-78
2022/02/26 00:21:48;;;;;;;3.75;1.58;;;2.50;96.70;;;;;;5032188;28;20029;-79
2022/02/26 00:24:14;;;;;;;4.85;1.75;;;2.50;96.30;;;;;;5017521;28;20026;-79
2022/02/26 00:26:40;;;;;;;7.55;1.45;;;2.40;96.40;;;;;;5015845;28;20038;-79
2022/02/26 00:29:06;;;;;;;6.78;1.70;;;2.40;96.50;;;;;;5018954;28;20025;-78
2022/02/26 00:31:32;;;;;;;10.13;1.70;;;2.40;96.80;;;;;;5017838;28;20041;-78
2022/02/26 00:33:58;;;;;;;9.77;2.38;;;2.30;96.80;;;;;;5020785;28;20129;-79
2022/02/26 00:36:24;;;;;;;10.77;1.80;;;2.30;97.00;;;;;;5019631;28;20466;-78
2022/02/26 00:38:50;;;;;;;6.80;1.67;;;2.40;97.00;;;;;;5020492;28;20088;-79
2022/02/26 00:41:15;;;;;;;7.03;2.03;;;2.40;96.90;;;;;;5023157;28;20079;-80
2022/02/26 00:43:41;;;;;;;4.38;1.50;;;2.40;97.00;;;;;;5023061;28;20114;-79
2022/02/26 00:46:10;;;;;;;8.18;2.78;;;2.50;96.60;;;;;;5037788;28;20060;-79
2022/02/26 00:51:21;;;;;;;3.97;1.70;;;2.50;96.60;;;;;;5021930;28;20324;-79
2022/02/26 00:53:47;;;;;;;5.03;1.65;;;2.40;96.50;;;;;;5018367;28;20322;-78
2022/02/26 00:56:13;;;;;;;9.68;2.40;;;2.30;96.70;;;;;;5018625;28;20026;-78
2022/02/26 00:58:39;;;;;;;7.65;2.50;;;2.20;96.90;;;;;;5019445;28;20079;-78
2022/02/26 01:01:05;;;;;;;5.68;1.58;;;2.20;97.00;;;;;;5019409;28;20028;-78
2022/02/26 01:03:31;;;;;;;16.50;2.83;;;2.00;97.30;;;;;;5019576;28;20490;-78
2022/02/26 01:05:56;;;;;;;8.73;1.83;;;2.00;97.60;;;;;;5020200;28;20033;-79
2022/02/26 01:08:22;;;;;;;5.13;2.03;;;2.00;97.90;;;;;;5021735;28;20022;-79
2022/02/26 01:10:48;;;;;;;6.25;2.08;;;1.90;97.80;;;;;;5006402;28;20023;-79
2022/02/26 01:13:14;;;;;;;4.85;2.40;;;2.00;98.10;;;;;;5016314;28;20496;-79
2022/02/26 01:15:40;;;;;;;7.40;1.90;;;2.00;98.00;;;;;;5019281;28;20050;-78
2022/02/26 01:18:05;;;;;;;4.03;1.45;;;2.00;98.10;;;;;;5018606;28;20510;-78
2022/02/26 01:20:32;;;;;;;12.20;2.83;;;2.00;98.40;;;;;;5019213;28;20029;-78
2022/02/26 01:22:58;;;;;;;5.20;1.77;;;2.00;98.50;;;;;;5019899;28;20034;-79
2022/02/26 01:25:24;;;;;;;6.22;2.63;;;2.00;98.50;;;;;;5017245;28;20129;-79
2022/02/26 01:27:49;;;;;;;6.85;2.00;;;2.00;98.40;;;;;;5017842;28;20044;-79
2022/02/26 01:30:15;;;;;;;10.68;2.53;;;2.00;98.60;;;;;;5020597;28;20022;-79
2022/02/26 01:32:41;;;;;;;11.70;2.15;;;2.00;98.40;;;;;;5019576;28;20025;-80
2022/02/26 01:35:08;;;;;;;6.53;2.35;;;2.00;98.50;;;;;;5021177;28;20038;-79
2022/02/26 01:37:34;;;;;;;6.43;2.28;;;2.00;98.50;;;;;;5021929;28;20022;-80
2022/02/26 01:40:00;;;;;;;11.10;2.20;;;2.00;98.60;;;;;;5016987;28;20453;-78
2022/02/26 01:42:26;;;;;;;7.57;2.63;;;2.00;98.70;;;;;;5023963;28;20080;-77
2022/02/26 01:44:53;;;;;;;4.25;2.17;;;2.00;98.80;;;;;;5025623;28;20096;-79
2022/02/26 01:47:20;;;;;;;6.47;2.08;;;2.00;98.80;;;;;;5021865;28;20029;-79
2022/02/26 01:49:46;;;;;;;7.18;2.50;;;2.10;99.00;;;;;;5019870;28;20026;-79
2022/02/26 01:52:14;;;;;;;8.90;3.05;;;2.10;99.00;;;;;;5020135;28;20046;-79
2022/02/26 01:54:40;;;;;;;7.70;2.40;;;2.10;99.00;;;;;;5018309;28;20076;-80
2022/02/26 01:57:06;;;;;;;6.85;2.60;;;2.10;98.90;;;;;;5032771;28;20106;-80
2022/02/26 01:59:31;;;;;;;7.75;2.45;;;2.10;98.80;;;;;;5021007;28;20032;-80
2022/02/26 02:01:57;;;;;;;7.05;2.28;;;2.10;98.40;;;;;;5036158;28;20213;-79
2022/02/26 02:04:23;;;;;;;9.95;2.67;;;2.10;98.40;;;;;;5020560;28;20022;-79
2022/02/26 02:06:49;;;;;;;3.83;1.60;;;2.10;98.60;;;;;;5018016;28;20032;-79
2022/02/26 02:09:14;;;;;;;6.82;2.03;;;2.10;98.50;;;;;;5015317;28;20025;-78
2022/02/26 02:11:41;;;;;;;4.93;1.80;;;2.10;98.30;;;;;;5020337;28;20030;-79
2022/02/26 02:14:07;;;;;;;6.97;2.47;;;2.10;98.30;;;;;;5022739;28;20093;-80
2022/02/26 02:16:36;;;;;;;7.00;2.00;;;2.00;98.30;;;;;;5018436;28;20045;-78
2022/02/26 02:19:08;;;;;;;9.77;2.38;;;2.10;98.00;;;;;;5020097;28;20029;-78
2022/02/26 02:21:34;;;;;;;9.03;2.00;;;2.10;97.90;;;;;;5019336;28;20431;-78
2022/02/26 02:24:01;;;;;;;8.95;2.35;;;2.00;98.00;;;;;;5018770;28;20018;-78
2022/02/26 02:26:30;;;;;;;9.13;2.00;;;2.00;98.00;;;;;;5019113;28;20022;-79
2022/02/26 02:28:58;;;;;;;4.90;1.80;;;2.00;97.80;;;;;;5023327;28;20026;-79
2022/02/26 02:31:24;;;;;;;10.93;2.00;;;2.00;97.60;;;;;;5019843;28;20065;-79
2022/02/26 02:33:51;;;;;;;6.10;1.77;;;2.00;97.20;;;;;;5021360;28;20034;-78
2022/02/26 02:36:16;;;;;;;5.20;1.67;;;2.10;97.00;;;;;;5018468;28;20423;-78
2022/02/26 02:38:43;;;;;;;4.30;1.35;;;2.10;96.90;;;;;;5017907;28;20029;-78
2022/02/26 02:41:09;;;;;;;7.13;1.88;;;2.20;96.60;;;;;;5017156;28;20018;-77
2022/02/26 02:43:35;;;;;;;4.72;1.50;;;2.10;96.70;;;;;;5017698;28;20026;-79
2022/02/26 02:46:02;;;;;;;5.30;1.67;;;2.20;96.50;;;;;;5019411;28;20033;-79
2022/02/26 02:48:28;;;;;;;6.22;2.00;;;2.20;96.40;;;;;;5017341;28;20026;-79
2022/02/26 02:50:54;;;;;;;7.15;1.63;;;2.30;95.90;;;;;;5021360;28;20078;-79
2022/02/26 02:53:20;;;;;;;7.28;1.77;;;2.30;95.80;;;;;;5037528;28;20097;-78
2022/02/26 02:55:50;;;;;;;8.95;1.80;;;2.30;95.80;;;;;;5033741;28;20072;-78
2022/02/26 02:58:24;;;;;;;4.45;1.60;;;2.20;95.80;;;;;;5018620;28;20041;-78
2022/02/26 03:00:50;;;;;;;7.22;1.52;;;2.30;95.60;;;;;;5018089;28;20075;-79
2022/02/26 03:03:16;;;;;;;5.63;1.83;;;2.30;95.70;;;;;;5021893;28;20060;-78
2022/02/26 03:05:42;;;;;;;4.45;1.85;;;2.30;95.60;;;;;;5019223;28;20082;-79
2022/02/26 03:08:08;;;;;;;4.22;1.42;;;2.30;95.30;;;;;;5018463;28;20117;-79
2022/02/26 03:10:33;;;;;;;6.18;2.05;;;2.40;95.20;;;;;;5027738;28;20049;-79
2022/02/26 03:12:59;;;;;;;4.78;2.15;;;2.30;95.10;;;;;;5028731;28;20064;-79
2022/02/26 03:15:25;;;;;;;5.22;2.05;;;2.30;94.90;;;;;;5020393;28;20026;-79
2022/02/26 03:17:51;;;;;;;7.35;1.63;;;2.30;95.20;;;;;;5017560;28;20028;-79
2022/02/26 03:20:18;;;;;;;6.93;1.80;;;2.30;95.40;;;;;;5016657;28;20033;-79
2022/02/26 03:22:44;;;;;;;3.13;1.20;;;2.30;95.30;;;;;;5016763;28;20490;-79
2022/02/26 03:25:10;;;;;;;7.10;1.90;;;2.40;95.10;;;;;;5016811;28;20037;-78
2022/02/26 03:27:36;;;;;;;4.22;1.38;;;2.40;95.30;;;;;;5016371;28;20029;-78
2022/02/26 03:30:04;;;;;;;3.33;1.65;;;2.30;95.60;;;;;;5018405;28;20048;-79
2022/02/26 03:32:30;;;;;;;6.07;1.60;;;2.30;95.70;;;;;;5017069;28;20057;-80
2022/02/26 03:34:56;;;;;;;5.50;1.63;;;2.30;95.80;;;;;;5015711;28;20045;-77
2022/02/26 03:37:22;;;;;;;8.98;1.98;;;2.30;95.80;;;;;;5016656;28;20054;-79
2022/02/26 03:39:48;;;;;;;5.00;2.13;;;2.30;95.90;;;;;;5013441;28;20048;-79
2022/02/26 03:42:14;;;;;;;5.00;1.45;;;2.30;96.10;;;;;;5016917;28;20034;-78
2022/02/26 03:44:40;;;;;;;6.57;1.77;;;2.30;96.10;;;;;;5016807;28;20034;-79
2022/02/26 03:47:06;;;;;;;6.97;1.98;;;2.20;96.20;;;;;;5015942;28;20026;-79
2022/02/26 03:49:32;;;;;;;10.50;2.30;;;2.30;96.30;;;;;;5015324;28;20022;-79
2022/02/26 03:51:59;;;;;;;5.18;1.77;;;2.20;96.40;;;;;;5016240;28;20029;-79
2022/02/26 03:54:25;;;;;;;7.45;1.63;;;2.30;96.40;;;;;;5017699;28;20064;-79
2022/02/26 03:56:51;;;;;;;6.80;1.75;;;2.30;96.00;;;;;;5033412;28;20059;-79
2022/02/26 03:59:16;;;;;;;4.38;1.70;;;2.30;96.20;;;;;;5020018;28;20045;-78
2022/02/26 04:01:42;;;;;;;3.65;1.52;;;2.30;96.50;;;;;;5016775;28;20120;-79
2022/02/26 04:04:08;;;;;;;6.15;1.67;;;2.30;96.50;;;;;;5016957;28;20455;-78
2022/02/26 04:06:34;;;;;;;4.63;2.03;;;2.30;96.50;;;;;;5015275;28;20050;-78
2022/02/26 04:09:00;;;;;;;5.28;2.22;;;2.30;96.50;;;;;;5029430;28;20026;-79
2022/02/26 04:11:26;;;;;;;7.53;2.00;;;2.30;96.30;;;;;;5033761;28;20038;-79
2022/02/26 04:13:52;;;;;;;5.85;1.88;;;2.30;96.20;;;;;;5036067;28;20025;-79
2022/02/26 04:16:18;;;;;;;8.23;1.90;;;2.30;96.20;;;;;;5035144;28;20033;-79
2022/02/26 04:18:43;;;;;;;10.32;2.85;;;2.30;96.40;;;;;;5034995;28;20022;-79
2022/02/26 04:21:09;;;;;;;5.47;2.20;;;2.40;96.30;;;;;;5034036;28;20050;-79
2022/02/26 04:23:35;;;;;;;5.47;2.00;;;2.30;96.60;;;;;;5022495;28;20033;-78
2022/02/26 04:26:01;;;;;;;7.15;1.98;;;2.30;96.60;;;;;;5024743;28;20025;-79
2022/02/26 04:28:26;;;;;;;6.63;2.28;;;2.30;96.80;;;;;;5024807;28;20033;-79
2022/02/26 04:30:52;;;;;;;6.63;1.92;;;2.20;97.10;;;;;;5021483;28;20126;-79
2022/02/26 04:33:20;;;;;;;6.45;2.35;;;2.20;97.60;;;;;;5021692;28;20503;-79
2022/02/26 04:35:46;;;;;;;4.10;2.00;;;2.20;97.40;;;;;;5026178;28;20033;-79
2022/02/26 04:38:11;;;;;;;4.60;1.90;;;2.20;97.50;;;;;;5026122;28;20022;-79
2022/02/26 04:40:37;;;;;;;6.15;2.45;;;2.20;97.70;;;;;;5012154;28;20026;-79
2022/02/26 04:43:03;;;;;;;8.63;2.40;;;2.20;97.80;;;;;;5012695;28;20052;-78
2022/02/26 04:45:29;;;;;;;6.63;3.38;;;2.20;97.70;;;;;;5015337;28;20022;-78
2022/02/26 04:47:54;;;;;;;11.32;2.83;;;2.20;98.10;;;;;;5016136;28;20057;-78
2022/02/26 04:50:20;;;;;;;7.38;2.50;;;2.20;98.20;;;;;;5014001;28;20022;-78
2022/02/26 04:52:46;;;;;;;8.02;2.30;;;2.20;98.40;;;;;;5017538;28;20030;-79
2022/02/26 04:55:13;;;;;;;7.28;2.83;;;2.10;98.60;;;;;;5016115;28;20117;-78
2022/02/26 04:57:40;;;;;;;4.43;2.28;;;2.10;99.00;;;;;;5014662;28;20026;-78
2022/02/26 05:00:08;;;;;;;5.90;2.72;;;2.10;99.00;;;;;;5014946;28;20029;-78
2022/02/26 05:02:34;;;;;;;6.50;2.55;;;2.10;98.90;;;;;;5013421;28;20030;-78
2022/02/26 05:05:00;;;;;;;7.30;2.70;;;2.20;98.80;;;;;;5014591;28;20026;-79
2022/02/26 05:07:26;;;;;;;9.00;2.97;;;2.20;99.00;;;;;;5015969;28;20037;-78
2022/02/26 05:09:51;;;;;;;4.43;2.17;;;2.20;98.90;;;;;;5012470;28;20042;-79
2022/02/26 05:12:17;;;;;;;6.43;2.50;;;2.20;98.60;;;;;;5014555;28;20104;-79
2022/02/26 05:14:43;;;;;;;7.25;2.42;;;2.20;98.70;;;;;;5015844;28;20080;-79
2022/02/26 05:17:09;;;;;;;4.70;1.98;;;2.20;98.60;;;;;;5046061;23;20008;-81
2022/02/26 05:19:34;;;;;;;3.83;2.20;;;2.30;98.60;;;;;;5032267;28;20027;-80
2022/02/26 05:22:00;;;;;;;3.17;2.03;;;2.20;98.70;;;;;;5044191;28;20037;-83
2022/02/26 05:24:26;;;;;;;4.38;2.38;;;2.20;98.90;;;;;;5063348;28;20029;-82
2022/02/26 05:26:52;;;;;;;7.88;2.85;;;2.20;99.30;;;;;;5062633;28;20044;-82
2022/02/26 05:29:19;;;;;;;10.52;2.65;;;2.20;99.30;;;;;;5061540;28;20025;-80
2022/02/26 05:31:45;;;;;;;6.10;2.53;;;2.10;99.40;;;;;;5061223;28;20380;-80
2022/02/26 05:34:11;;;;;;;7.45;2.35;;;2.10;99.50;;;;;;5062287;28;20025;-81
2022/02/26 05:36:37;;;;;;;6.97;2.75;;;2.20;99.30;;;;;;5062567;28;20489;-82
2022/02/26 05:39:03;;;;;;;11.98;2.58;;;2.20;99.20;;;;;;5048032;28;20036;-83
2022/02/26 05:41:28;;;;;;;5.80;2.30;;;2.20;98.60;;;;;;5084928;28;20060;-83
2022/02/26 05:43:54;;;;;;;7.05;2.50;;;2.30;98.30;;;;;;5085776;28;20020;-82
2022/02/26 05:46:20;;;;;;;7.25;2.40;;;2.30;98.20;;;;;;5085539;28;20043;-79
2022/02/26 05:48:46;;;;;;;6.50;2.67;;;2.20;98.30;;;;;;5086020;28;20031;-83
2022/02/26 05:51:11;;;;;;;8.90;2.78;;;2.20;98.60;;;;;;5065786;28;20477;-79
2022/02/26 05:53:37;;;;;;;8.38;2.53;;;2.20;98.60;;;;;;5083070;28;20031;-80
2022/02/26 05:56:03;;;;;;;7.38;2.72;;;2.20;98.50;;;;;;5082925;28;20025;-80
2022/02/26 05:58:29;;;;;;;5.95;2.50;;;2.20;98.50;;;;;;5083358;28;20036;-81
2022/02/26 06:00:55;;;;;;;9.82;4.40;;;2.20;98.80;;;;;;5085961;28;20024;-81
2022/02/26 06:03:21;;;;;;;5.97;2.38;;;2.20;98.90;;;;;;5090295;28;20020;-81
2022/02/26 06:05:47;;;;;;;3.95;2.40;;;2.10;99.00;;;;;;5075268;28;20028;-78
2022/02/26 06:08:14;;;;;;;5.57;2.30;;;2.10;98.70;;;;;;5093244;28;20032;-81
2022/02/26 06:10:40;;;;;;;5.70;2.40;;;2.10;98.70;;;;;;5091443;28;20085;-78
2022/02/26 06:13:06;;;;;;;5.18;2.80;;;2.10;99.00;;;;;;5076676;28;20449;-82
2022/02/26 06:15:32;;;;;;;10.30;3.05;;;2.10;99.00;;;;;;5092282;28;20036;-81
2022/02/26 06:17:58;;;;;;;9.20;3.35;;;2.10;99.20;;;;;;5054276;28;20051;-79
2022/02/26 06:20:23;;;;;;;8.98;2.53;;;2.20;98.80;;;;;;5058759;28;20024;-82
2022/02/26 06:22:49;;;;;;;6.25;2.95;;;2.10;99.00;;;;;;5061424;28;20053;-80
2022/02/26 06:25:16;;;;;;;7.38;2.60;;;2.10;98.90;;;;;;5061916;28;20025;-80
2022/02/26 06:27:44;;;;;;;9.02;2.95;;;2.10;99.30;;;;;;5065240;28;20085;-80
2022/02/26 06:30:11;;;;;;;7.35;2.95;;;2.10;99.50;;;;;;5064022;28;20028;-83
2022/02/26 06:32:38;;;;;;;7.13;3.03;;;2.10;99.60;;;;;;5062559;28;20032;-81
2022/02/26 06:35:09;;;;;;;7.85;3.38;;;2.20;99.40;;;;;;5061986;28;20029;-80
2022/02/26 06:37:35;;;;;;;7.25;2.78;;;2.20;99.30;;;;;;5060416;28;20078;-77
2022/02/26 06:40:01;;;;;;;4.60;2.95;;;2.20;99.10;;;;;;5067326;28;20067;-79
2022/02/26 06:42:27;;;;;;;10.75;3.42;;;2.20;99.20;;;;;;5080623;28;20074;-79
2022/02/26 06:44:53;;;;;;;6.72;3.40;;;2.20;99.00;;;;;;5084464;28;20025;-84
2022/02/26 06:47:19;;;;;;;6.78;2.90;;;2.20;98.60;;;;;;5069800;28;20085;-82
2022/02/26 06:49:45;;;;;;;6.25;3.25;;;2.20;98.90;;;;;;5069549;28;20123;-83
2022/02/26 06:52:11;;;;;;;9.32;3.65;;;2.20;99.10;;;;;;5069789;28;20039;-84
2022/02/26 06:54:40;;;;;;;5.93;2.80;;;2.20;99.40;;;;;;5066299;28;20051;-85
2022/02/26 06:57:06;;;;;;;7.03;3.08;;;2.10;99.30;;;;;;5067082;28;20030;-85
2022/02/26 06:59:32;;;;;;;8.85;3.28;;;2.20;98.90;;;;;;5063984;28;20029;-85
2022/02/26 07:01:58;;;;;;;4.60;2.40;;;2.20;98.60;;;;;;5080080;28;20033;-85
2022/02/26 07:04:24;;;;;;;7.07;2.90;;;2.30;98.60;;;;;;5061998;28;20020;-85
2022/02/26 07:06:50;;;;;;;5.15;2.75;;;2.30;98.10;;;;;;5092960;28;20096;-85
2022/02/26 07:09:21;;;;;;;9.02;2.90;;;2.40;97.90;;;;;;5075462;28;20029;-85
2022/02/26 07:11:48;;;;;;;10.20;3.10;;;2.40;98.10;;;;;;5064633;28;20008;-84
2022/02/26 07:14:16;;;;;;;7.38;3.00;;;2.40;98.20;;;;;;5071491;28;20023;-79
2022/02/26 07:16:42;;;;;;;7.07;3.08;;;2.40;98.20;;;;;;5076846;28;20036;-84
2022/02/26 07:19:09;;;;;;;5.63;2.58;;;2.40;97.90;;;;;;5090873;28;20043;-80
2022/02/26 07:21:36;;;;;;;6.53;3.08;;;2.50;97.90;;;;;;5089407;28;20069;-84
2022/02/26 07:24:02;;;;;;;5.35;3.05;;;2.40;97.90;;;;;;5074777;28;20139;-86
2022/02/26 07:26:30;;;;;;;6.85;3.42;;;2.50;97.90;;;;;;5061481;28;20035;-83
2022/02/26 07:28:57;;;;;;;6.40;2.90;;;2.50;98.20;;;;;;5061226;28;20024;-81
2022/02/26 07:31:23;;;;;;;8.43;3.30;;;2.40;98.30;;;;;;5063752;28;20021;-81
2022/02/26 07:33:53;;;;;;;9.75;3.70;;;2.50;98.10;;;;;;5082231;28;20044;-82
2022/02/26 07:36:19;;;;;;;9.38;3.20;;;2.50;98.30;;;;;;5066562;28;20024;-83
2022/02/26 07:38:45;;;;;;;17.17;4.55;;;2.50;98.30;;;;;;5085192;28;20036;-81
2022/02/26 07:41:10;;;;;;;8.80;3.20;;;2.60;98.30;;;;;;5066500;28;20032;-84
2022/02/26 07:43:37;;;;;;;10.73;2.90;;;2.50;98.50;;;;;;5085318;28;20067;-84
2022/02/26 07:46:04;;;;;;;7.10;2.80;;;2.60;97.90;;;;;;5085534;28;20421;-83
2022/02/26 07:48:37;;;;;;;9.05;2.75;;;2.60;98.00;;;;;;5085925;28;20031;-85
2022/02/26 07:51:03;;;;;;;10.30;3.60;;;2.60;98.10;;;;;;5066043;28;20024;-82
2022/02/26 07:53:30;;;;;;;11.07;3.15;;;2.60;98.40;;;;;;5085130;28;20430;-82
2022/02/26 07:55:55;;;;;;;10.07;3.58;;;2.70;98.70;;;;;;5067910;28;20024;-82
2022/02/26 07:58:21;;;;;;;7.38;3.60;;;2.70;98.50;;;;;;5067212;28;20033;-81
2022/02/26 08:00:48;;;;;;;8.00;2.95;;;2.70;98.30;;;;;;5066783;28;20035;-81
2022/02/26 08:03:14;;;;;;;7.25;3.00;;;2.80;97.60;;;;;;5067388;28;20028;-80
2022/02/26 08:05:40;;;;;;;9.00;3.55;;;2.90;97.40;;;;;;5068860;28;20067;-81
2022/02/26 08:08:07;;;;;;;16.77;4.07;;;3.00;96.90;;;;;;5086311;28;20031;-83
2022/02/26 08:10:33;;;;;;;8.30;3.88;;;3.00;97.10;;;;;;5054389;28;20021;-81
2022/02/26 08:12:59;;;;;;;7.13;3.38;;;3.10;96.60;;;;;;5062620;28;20165;-81
2022/02/26 08:15:27;;;;;;;7.28;3.42;;;3.10;96.80;;;;;;5068551;28;20028;-79
2022/02/26 08:17:53;;;;;;;15.10;3.70;;;3.20;97.10;;;;;;5089633;28;20040;-80
2022/02/26 08:20:23;;;;;;;9.57;2.83;;;3.30;97.20;;;;;;5077240;28;20029;-83
2022/02/26 08:22:49;;;;;;;16.20;3.70;;;3.50;96.60;;;;;;5070856;28;20064;-81
2022/02/26 08:25:15;;;;;;;8.25;3.17;;;3.60;96.40;;;;;;5067745;28;20038;-82
2022/02/26 08:27:42;;;;;;;7.40;3.65;;;3.80;95.10;;;;;;5067960;28;20438;-81
2022/02/26 08:30:11;;;;;;;7.97;3.15;;;3.80;95.00;;;;;;5068575;28;20063;-80
2022/02/26 08:32:36;;;;;;;7.22;3.08;;;3.90;94.70;;;;;;5066902;28;20048;-85
2022/02/26 08:35:03;;;;;;;9.82;2.58;;;3.80;94.50;;;;;;5067999;28;20033;-85
2022/02/26 08:37:29;;;;;;;6.63;2.58;;;3.70;94.40;;;;;;5067826;28;20058;-85
2022/02/26 08:39:55;;;;;;;9.32;3.60;;;3.80;93.90;;;;;;5060064;28;20029;-84
2022/02/26 08:42:21;;;;;;;5.10;3.08;;;3.80;92.70;;;;;;5058223;28;20028;-83
2022/02/26 08:44:47;;;;;;;8.18;3.15;;;3.70;92.20;;;;;;5067799;28;20107;-83
2022/02/26 08:47:13;;;;;;;13.95;4.13;;;3.70;92.10;;;;;;5068175;28;20035;-83
2022/02/26 08:49:39;;;;;;;11.70;3.80;;;3.70;92.00;;;;;;5069914;28;20024;-82
2022/02/26 08:52:06;;;;;;;12.73;3.47;;;3.70;91.50;;;;;;5072973;28;20058;-83
2022/02/26 08:54:32;;;;;;;9.63;3.55;;;3.70;91.40;;;;;;5090516;28;20086;-84
2022/02/26 08:56:58;;;;;;;9.43;3.65;;;3.70;91.50;;;;;;5089990;28;20032;-82
2022/02/26 08:59:24;;;;;;;8.85;3.83;;;3.70;90.90;;;;;;5072489;28;20092;-83
2022/02/26 09:01:50;;;;;;;5.82;3.17;;;3.80;90.60;;;;;;5072173;28;20040;-84
2022/02/26 09:04:16;;;;;;;9.52;4.18;;;3.80;90.80;;;;;;5071609;28;20384;-83
2022/02/26 09:06:41;;;;;;;9.88;3.47;;;3.80;90.60;;;;;;5072645;28;20092;-82
2022/02/26 09:09:10;;;;;;;10.30;3.60;;;3.90;90.40;;;;;;5068186;28;20515;-82
2022/02/26 09:11:37;;;;;;;12.50;3.60;;;3.80;90.50;;;;;;5023264;28;20079;-82
2022/02/26 09:14:05;;;;;;;10.15;3.83;;;3.80;91.00;;;;;;5044410;28;20093;-81
2022/02/26 09:16:31;;;;;;;11.52;4.15;;;3.90;91.40;;;;;;5027820;28;20089;-81
2022/02/26 09:18:57;;;;;;;9.15;3.30;;;4.00;91.40;;;;;;5046642;28;20037;-81
2022/02/26 09:21:22;;;;;;;11.63;3.88;;;4.00;91.10;;;;;;5029819;28;20093;-81
2022/02/26 09:23:48;;;;;;;9.15;3.33;;;4.10;90.50;;;;;;5031708;28;20009;-81
2022/02/26 09:26:14;;;;;;;7.72;2.40;;;4.10;89.60;;;;;;5032355;28;20087;-82
2022/02/26 09:28:41;;;;;;;9.27;3.15;;;4.20;87.70;;;;;;5031740;28;20026;-83
2022/02/26 09:31:08;;;;;;;7.22;2.58;;;4.40;87.10;;;;;;5032862;28;20141;-82
2022/02/26 09:33:34;;;;;;;6.10;2.70;;;4.60;85.20;;;;;;5031716;28;20083;-82
2022/02/26 09:36:02;;;;;;;7.07;2.45;;;4.60;83.50;;;;;;5049272;28;20053;-84
2022/02/26 09:38:28;;;;;;;8.82;2.30;;;4.70;84.30;;;;;;5049725;28;20055;-84
2022/02/26 09:40:59;;;;;;;13.32;3.08;;;5.00;84.30;;;;;;5055024;28;20049;-82
2022/02/26 09:43:29;;;;;;;9.13;2.40;;;5.30;82.40;;;;;;5073880;28;20029;-83
2022/02/26 09:45:57;;;;;;;10.70;3.40;;;5.40;79.60;;;;;;5073095;28;20093;-81
2022/02/26 09:48:23;;;;;;;8.20;2.70;;;5.50;80.40;;;;;;5073706;28;20099;-84
2022/02/26 09:50:49;;;;;;;11.20;2.35;;;5.50;78.40;;;;;;5072868;28;20044;-83
2022/02/26 09:53:20;;;;;;;8.13;2.40;;;5.40;77.30;;;;;;5072471;28;20021;-83
2022/02/26 09:55:52;;;;;;;9.15;2.30;;;5.30;76.70;;;;;;5072678;28;20020;-83
2022/02/26 09:58:18;;;;;;;9.67;2.90;;;5.20;77.70;;;;;;5069475;28;20051;-84
2022/02/26 10:00:45;;;;;;;9.80;2.42;;;5.30;76.50;;;;;;5067755;28;20024;-84
2022/02/26 10:03:38;;;;;;;9.85;2.70;;;5.40;75.90;;;;;;5074923;28;20036;-84
2022/02/26 10:06:07;;;;;;;8.85;2.53;;;5.40;73.90;;;;;;5094309;28;20016;-83
2022/02/26 10:08:43;;;;;;;8.52;2.65;;;5.40;71.50;;;;;;5076222;28;20048;-83
2022/02/26 10:11:32;;;;;;;4.32;1.85;;;5.40;71.50;;;;;;5073345;28;20018;-85
2022/02/26 10:14:18;;;;;;;6.93;1.50;;;5.70;70.00;;;;;;5049272;28;20055;-83
2022/02/26 10:16:52;;;;;;;8.70;1.60;;;5.80;68.30;;;;;;5070294;28;20049;-85
2022/02/26 10:19:29;;;;;;;5.47;1.38;;;6.00;67.10;;;;;;5058056;28;20104;-83
2022/02/26 10:22:08;;;;;;;5.72;1.35;;;6.10;66.40;;;;;;5063562;28;20085;-83
2022/02/26 10:24:36;;;;;;;6.60;2.00;;;5.80;64.80;;;;;;5045906;28;20398;-83
2022/02/26 10:27:06;;;;;;;4.60;2.08;;;5.70;65.50;;;;;;5064400;28;20252;-83
2022/02/26 10:29:37;;;;;;;4.97;1.80;;;6.00;66.20;;;;;;5064692;28;20128;-83
2022/02/26 10:32:05;;;;;;;6.00;2.00;;;6.40;66.10;;;;;;5056805;28;20028;-83
2022/02/26 10:34:39;;;;;;;5.60;1.40;;;6.40;63.80;;;;;;5058225;28;20028;-83
2022/02/26 10:37:10;;;;;;;4.38;1.08;;;6.50;61.70;;;;;;5051928;28;20029;-86
2022/02/26 10:39:38;;;;;;;5.50;1.45;;;6.70;62.60;;;;;;5055457;28;20055;-84
2022/02/26 10:42:06;;;;;;;6.25;1.33;;;7.20;59.80;;;;;;5094733;28;20063;-85
2022/02/26 10:44:32;;;;;;;4.05;1.83;;;7.40;56.40;;;;;;5071937;28;20024;-84
2022/02/26 10:47:07;;;;;;;12.57;2.20;;;7.20;56.40;;;;;;5069467;28;20020;-85
2022/02/26 10:49:34;;;;;;;7.85;1.80;;;6.70;56.70;;;;;;5071691;28;20085;-84
2022/02/26 10:52:09;;;;;;;3.72;1.00;;;6.40;57.20;;;;;;5079020;28;20013;-82
2022/02/26 10:54:36;;;;;;;4.97;1.10;;;6.10;58.50;;;;;;5079486;28;20020;-82
2022/02/26 10:57:04;;;;;;;5.53;1.05;;;5.80;59.10;;;;;;5097102;28;20012;-83
2022/02/26 10:59:41;;;;;;;5.85;1.30;;;5.80;59.20;;;;;;5096547;28;20032;-82
2022/02/26 11:02:09;;;;;;;7.18;0.90;;;5.80;59.20;;;;;;5070841;28;20045;-81
2022/02/26 11:04:36;;;;;;;4.75;0.98;;;5.60;58.60;;;;;;5060034;28;20029;-85
2022/02/26 11:07:05;;;;;;;3.50;1.10;;;5.70;58.50;;;;;;5050759;28;20024;-84
2022/02/26 11:09:31;;;;;;;6.03;1.75;;;5.80;57.60;;;;;;5052109;28;20056;-86
2022/02/26 11:11:59;;;;;;;5.22;1.15;;;5.80;57.80;;;;;;5065986;28;20017;-85
2022/02/26 11:14:28;;;;;;;3.38;0.90;;;5.90;57.20;;;;;;5088527;28;20084;-84
2022/02/26 11:19:27;;;;;;;4.30;1.15;;;5.80;58.20;;;;;;5007403;28;20049;-80
2022/02/26 11:21:53;;;;;;;3.42;0.90;;;5.90;59.10;;;;;;4997273;28;20033;-81
2022/02/26 11:24:20;;;;;;;2.70;0.90;;;6.00;59.00;;;;;;4998048;28;20069;-79
2022/02/26 11:26:46;;;;;;;5.50;1.00;;;6.00;57.60;;;;;;5000954;28;20022;-80
2022/02/26 11:29:16;;;;;;;4.70;1.15;;;6.20;55.90;;;;;;5003936;28;20026;-79
2022/02/26 11:31:47;;;;;;;1.45;0.75;;;6.40;55.20;;;;;;4998119;28;20022;-79
2022/02/26 11:34:22;;;;;;;8.18;1.50;;;6.50;53.90;;;;;;4999372;28;20022;-81
2022/02/26 11:36:55;;;;;;;7.10;1.48;;;6.50;54.30;;;;;;5012333;28;20526;-79
2022/02/26 11:39:22;;;;;;;5.32;1.13;;;6.40;54.40;;;;;;5034916;28;20030;-78
2022/02/26 11:41:48;;;;;;;4.72;1.17;;;6.50;54.50;;;;;;5035074;28;20026;-79
2022/02/26 11:44:37;;;;;;;4.75;1.27;;;6.50;54.70;;;;;;5017079;28;20053;-79
2022/02/26 11:47:13;;;;;;;5.13;1.55;;;6.50;55.50;;;;;;5015062;28;20026;-80
2022/02/26 11:49:56;;;;;;;5.00;1.38;;;6.40;55.50;;;;;;5015936;28;20022;-80
2022/02/26 11:52:40;;;;;;;7.00;1.50;;;6.50;55.30;;;;;;5015354;28;20026;-79
2022/02/26 11:55:32;;;;;;;3.15;1.00;;;6.50;54.80;;;;;;5028468;28;20035;-79
2022/02/26 11:58:00;;;;;;;6.78;0.77;;;6.20;55.10;;;;;;4995788;28;20034;-80
2022/02/26 12:00:31;;;;;;;5.95;1.13;;;6.10;55.90;;;;;;5016236;28;20044;-80
2022/02/26 12:03:18;;;;;;;4.60;1.25;;;6.20;54.40;;;;;;5037306;28;20585;-80
2022/02/26 12:05:46;;;;;;;2.92;1.38;;;6.20;53.50;;;;;;5036601;28;20047;-80
2022/02/26 12:08:12;;;;;;;3.75;1.00;;;6.00;53.60;;;;;;5038164;28;20458;-79
2022/02/26 12:10:51;;;;;;;5.03;0.93;;;6.00;55.00;;;;;;5039091;28;20022;-79
2022/02/26 12:13:46;;;;;;;3.70;1.00;;;6.10;54.10;;;;;;5051640;28;20041;-80
2022/02/26 12:16:22;;;;;;;5.53;1.10;;;6.40;53.50;;;;;;5036692;28;20072;-79
2022/02/26 12:18:56;;;;;;;5.55;1.58;;;6.40;53.80;;;;;;5017773;28;20040;-79
2022/02/26 12:21:23;;;;;;;4.53;1.15;;;6.40;53.70;;;;;;5020678;28;20474;-80
2022/02/26 12:24:13;;;;;;;10.60;1.08;;;6.50;53.30;;;;;;5023313;28;20026;-80
2022/02/26 12:26:59;;;;;;;3.40;0.93;;;6.60;53.60;;;;;;5020442;28;20018;-79
2022/02/26 12:29:31;;;;;;;10.60;1.80;;;6.60;53.90;;;;;;5030338;28;20013;-80
2022/02/26 12:32:05;;;;;;;7.93;1.30;;;6.70;52.30;;;;;;5043849;28;20090;-80
2022/02/26 12:34:37;;;;;;;3.95;0.77;;;6.70;52.20;;;;;;5031086;28;20081;-79
2022/02/26 12:37:09;;;;;;;5.68;1.10;;;6.60;52.10;;;;;;5028681;28;20038;-79
2022/02/26 12:39:51;;;;;;;3.40;1.13;;;6.40;52.70;;;;;;5025739;28;20056;-79
2022/02/26 12:42:19;;;;;;;4.53;1.13;;;6.30;52.50;;;;;;5036823;28;20466;-79
2022/02/26 12:44:45;;;;;;;5.82;1.05;;;6.30;53.10;;;;;;5003592;28;20022;-80
2022/02/26 12:47:12;;;;;;;7.88;1.23;;;6.40;53.00;;;;;;5010265;28;20057;-80
2022/02/26 12:49:37;;;;;;;6.43;1.00;;;6.40;53.10;;;;;;5028571;28;20069;-79
2022/02/26 12:52:04;;;;;;;4.25;0.98;;;6.60;52.00;;;;;;5021779;28;20030;-79
2022/02/26 12:54:32;;;;;;;2.13;0.73;;;6.60;50.60;;;;;;5021962;28;20121;-79
2022/02/26 12:56:58;;;;;;;4.18;1.23;;;6.40;50.30;;;;;;5020804;28;20034;-79
2022/02/26 12:59:27;;;;;;;6.50;1.25;;;6.20;50.40;;;;;;5020365;28;20438;-79
2022/02/26 13:01:53;;;;;;;4.53;1.15;;;6.40;50.90;;;;;;5019189;28;20053;-79
2022/02/26 13:04:22;;;;;;;4.20;0.90;;;6.60;51.40;;;;;;5022483;28;20026;-80